Time;durP1;ratioP1;P1;durP2;ratioP2;P2;SDS_P1;SDS_P2;PMS_P1;PMS_P2;Temp;Humidity;BMP_temperature;BMP_pressure;BME280_temperature;BME280_humidity;BME280_pressure;Samples;Min_cycle;Max_cycle;Signal;HPM_P1;HPM_P2
2023/06/18 00:02:23;;;;;;;2.30;1.30;;;;;;;;;;5067138;28;20201;-73
2023/06/18 00:04:48;;;;;;;5.20;1.30;;;;;;;;;;5066341;28;20335;-73
2023/06/18 00:07:14;;;;;;;2.58;1.40;;;;;;;;;;5066681;28;20036;-73
2023/06/18 00:09:39;;;;;;;4.28;1.35;;;;;;;;;;5066128;28;20025;-74
2023/06/18 00:12:05;;;;;;;2.47;1.27;;;;;;;;;;5062926;28;20031;-73
2023/06/18 00:14:30;;;;;;;1.88;0.90;;;;;;;;;;5062418;28;20039;-72
2023/06/18 00:16:56;;;;;;;1.83;1.17;;;;;;;;;;5063219;28;20051;-73
2023/06/18 00:19:21;;;;;;;2.90;1.20;;;;;;;;;;5063367;28;20033;-75
2023/06/18 00:21:47;;;;;;;1.98;1.08;;;;;;;;;;5063134;28;20032;-72
2023/06/18 00:24:13;;;;;;;1.88;1.08;;;;;;;;;;5062926;28;20310;-73
2023/06/18 00:26:38;;;;;;;3.60;1.38;;;;;;;;;;5063472;28;20029;-73
2023/06/18 00:29:03;;;;;;;1.58;1.00;;;;;;;;;;5061780;28;20037;-73
2023/06/18 00:31:32;;;;;;;1.15;0.80;;;;;;;;;;5063465;28;20313;-75
2023/06/18 00:34:04;;;;;;;1.70;1.00;;;;;;;;;;5062684;28;20029;-72
2023/06/18 00:36:31;;;;;;;1.92;1.10;;;;;;;;;;5063094;28;20028;-75
2023/06/18 00:38:57;;;;;;;2.72;0.90;;;;;;;;;;5063147;28;20032;-74
2023/06/18 00:41:24;;;;;;;3.28;1.02;;;;;;;;;;5063379;28;20021;-75
2023/06/18 00:43:50;;;;;;;1.40;0.82;;;;;;;;;;5063097;28;20060;-76
2023/06/18 00:46:17;;;;;;;2.67;1.05;;;;;;;;;;5063282;28;20344;-77
2023/06/18 00:48:45;;;;;;;1.50;1.00;;;;;;;;;;5063103;28;20036;-74
2023/06/18 00:51:11;;;;;;;1.00;0.73;;;;;;;;;;5063144;28;20037;-72
2023/06/18 00:53:37;;;;;;;1.45;0.82;;;;;;;;;;5063019;28;20033;-72
2023/06/18 00:56:03;;;;;;;1.45;0.90;;;;;;;;;;5045417;28;20040;-72
2023/06/18 00:58:28;;;;;;;1.15;0.90;;;;;;;;;;5043111;28;20048;-72
2023/06/18 01:00:54;;;;;;;1.27;0.90;;;;;;;;;;5042910;28;20055;-73
2023/06/18 01:03:21;;;;;;;1.45;1.05;;;;;;;;;;5043270;28;20089;-75
2023/06/18 01:06:01;;;;;;;1.60;0.90;;;;;;;;;;5042869;28;20317;-72
2023/06/18 01:08:28;;;;;;;2.10;1.08;;;;;;;;;;5042931;28;20144;-73
2023/06/18 01:11:13;;;;;;;1.02;0.75;;;;;;;;;;5042781;28;20105;-73
2023/06/18 01:13:41;;;;;;;1.70;0.90;;;;;;;;;;5042524;28;20151;-73
2023/06/18 01:16:08;;;;;;;0.85;0.70;;;;;;;;;;5042475;28;20142;-73
2023/06/18 01:18:39;;;;;;;2.97;0.82;;;;;;;;;;5042638;28;20347;-73
2023/06/18 01:21:10;;;;;;;2.53;0.95;;;;;;;;;;5042701;28;20060;-73
2023/06/18 01:23:50;;;;;;;1.55;1.10;;;;;;;;;;5056579;28;20025;-73
2023/06/18 01:26:20;;;;;;;1.27;0.70;;;;;;;;;;5042351;28;20032;-73
2023/06/18 01:28:53;;;;;;;1.23;0.82;;;;;;;;;;5042385;28;20317;-73
2023/06/18 01:31:21;;;;;;;1.70;1.00;;;;;;;;;;5041829;28;20022;-73
2023/06/18 01:33:51;;;;;;;1.58;0.77;;;;;;;;;;5042314;28;20069;-73
2023/06/18 01:36:33;;;;;;;1.38;0.93;;;;;;;;;;5042271;28;20033;-74
2023/06/18 01:39:07;;;;;;;1.13;0.82;;;;;;;;;;5042469;28;20274;-73
2023/06/18 01:41:36;;;;;;;0.63;0.60;;;;;;;;;;5042368;28;20060;-72
2023/06/18 01:44:08;;;;;;;1.27;0.83;;;;;;;;;;5042096;28;20344;-74
2023/06/18 01:46:33;;;;;;;1.05;0.73;;;;;;;;;;5042111;28;20032;-73
2023/06/18 01:49:07;;;;;;;0.77;0.65;;;;;;;;;;5042072;28;20108;-74
2023/06/18 01:51:35;;;;;;;2.47;0.82;;;;;;;;;;5041685;28;20045;-73
2023/06/18 01:54:02;;;;;;;0.85;0.57;;;;;;;;;;5042020;28;20079;-73
2023/06/18 01:56:28;;;;;;;1.40;0.93;;;;;;;;;;5041971;28;20340;-73
2023/06/18 01:58:55;;;;;;;0.93;0.73;;;;;;;;;;5041890;28;20021;-73
2023/06/18 02:01:21;;;;;;;1.63;1.00;;;;;;;;;;5041709;28;20093;-72
2023/06/18 02:03:47;;;;;;;1.25;0.85;;;;;;;;;;5041648;28;20028;-73
2023/06/18 02:06:13;;;;;;;1.05;0.70;;;;;;;;;;5040858;28;20067;-72
2023/06/18 02:08:38;;;;;;;1.27;1.05;;;;;;;;;;5041718;28;20021;-76
2023/06/18 02:11:04;;;;;;;1.60;0.85;;;;;;;;;;5040939;28;20025;-72
2023/06/18 02:13:29;;;;;;;0.90;0.63;;;;;;;;;;5041551;28;20083;-76
2023/06/18 02:15:55;;;;;;;1.05;0.82;;;;;;;;;;5040513;28;20033;-74
2023/06/18 02:18:20;;;;;;;1.20;0.70;;;;;;;;;;5041065;28;20329;-73
2023/06/18 02:20:46;;;;;;;1.10;0.80;;;;;;;;;;5041501;28;20151;-73
2023/06/18 02:23:12;;;;;;;1.60;0.90;;;;;;;;;;5041249;28;20033;-72
2023/06/18 02:25:37;;;;;;;1.38;0.88;;;;;;;;;;5041091;28;20039;-73
2023/06/18 02:28:04;;;;;;;1.88;1.02;;;;;;;;;;5041370;28;20029;-73
2023/06/18 02:30:29;;;;;;;1.15;0.70;;;;;;;;;;5041394;28;20022;-75
2023/06/18 02:32:56;;;;;;;1.50;0.82;;;;;;;;;;5041397;28;20040;-72
2023/06/18 02:35:21;;;;;;;1.08;0.90;;;;;;;;;;5040702;28;20056;-73
2023/06/18 02:37:47;;;;;;;1.50;0.90;;;;;;;;;;5040530;28;20234;-74
2023/06/18 02:40:16;;;;;;;0.98;0.70;;;;;;;;;;5040551;28;20059;-73
2023/06/18 02:42:48;;;;;;;1.33;0.88;;;;;;;;;;5040743;28;20048;-76
2023/06/18 02:45:18;;;;;;;1.40;0.95;;;;;;;;;;5040666;28;20057;-76
2023/06/18 02:47:44;;;;;;;1.70;0.93;;;;;;;;;;5040615;28;20104;-74
2023/06/18 02:50:11;;;;;;;2.60;0.88;;;;;;;;;;5040962;28;20045;-73
2023/06/18 02:52:36;;;;;;;1.30;0.80;;;;;;;;;;5040935;28;20053;-73
2023/06/18 02:55:02;;;;;;;2.05;1.20;;;;;;;;;;5040049;28;20071;-73
2023/06/18 02:57:27;;;;;;;1.35;0.85;;;;;;;;;;5040345;28;20459;-73
2023/06/18 02:59:52;;;;;;;3.50;1.27;;;;;;;;;;5040698;28;20072;-73
2023/06/18 03:02:18;;;;;;;1.80;1.15;;;;;;;;;;5040885;28;20104;-73
2023/06/18 03:04:43;;;;;;;2.00;1.13;;;;;;;;;;5040912;28;20041;-74
2023/06/18 03:07:09;;;;;;;1.35;0.90;;;;;;;;;;5039476;28;20120;-72
2023/06/18 03:09:34;;;;;;;1.73;0.80;;;;;;;;;;5041098;28;20029;-73
2023/06/18 03:12:00;;;;;;;2.40;1.40;;;;;;;;;;5040852;28;20069;-74
2023/06/18 03:14:25;;;;;;;2.25;1.15;;;;;;;;;;5040986;28;20298;-73
2023/06/18 03:16:51;;;;;;;2.40;0.98;;;;;;;;;;5040628;28;20040;-73
2023/06/18 03:19:16;;;;;;;5.45;1.10;;;;;;;;;;5040889;28;20036;-73
2023/06/18 03:21:42;;;;;;;1.80;1.15;;;;;;;;;;5040573;28;20060;-75
2023/06/18 03:24:08;;;;;;;2.75;1.30;;;;;;;;;;5040176;28;20025;-73
2023/06/18 03:26:36;;;;;;;1.70;1.08;;;;;;;;;;5039798;28;20214;-73
2023/06/18 03:29:02;;;;;;;2.53;1.10;;;;;;;;;;5040353;28;20209;-78
2023/06/18 03:31:28;;;;;;;1.83;1.13;;;;;;;;;;5040793;28;20060;-77
2023/06/18 03:33:53;;;;;;;2.65;1.00;;;;;;;;;;5040749;28;20214;-74
2023/06/18 03:36:19;;;;;;;1.75;1.02;;;;;;;;;;5040504;28;20032;-73
2023/06/18 03:38:48;;;;;;;4.47;1.38;;;;;;;;;;5040979;28;20255;-73
2023/06/18 03:41:14;;;;;;;1.55;1.00;;;;;;;;;;5040475;28;20033;-73
2023/06/18 03:43:39;;;;;;;1.77;1.15;;;;;;;;;;5040751;28;20030;-73
2023/06/18 03:46:05;;;;;;;1.35;0.90;;;;;;;;;;5041037;28;20088;-75
2023/06/18 03:48:30;;;;;;;1.00;0.68;;;;;;;;;;5044424;28;20018;-73
2023/06/18 03:50:55;;;;;;;1.50;0.90;;;;;;;;;;5076620;28;20033;-73
2023/06/18 03:53:21;;;;;;;3.95;0.98;;;;;;;;;;5043927;28;20428;-73
2023/06/18 03:55:46;;;;;;;2.10;1.20;;;;;;;;;;5044056;28;20037;-72
2023/06/18 03:58:12;;;;;;;1.67;1.02;;;;;;;;;;5044193;28;20021;-72
2023/06/18 04:00:37;;;;;;;1.63;1.10;;;;;;;;;;5044193;28;20033;-72
2023/06/18 04:03:05;;;;;;;1.48;1.00;;;;;;;;;;5044127;28;20025;-73
2023/06/18 04:05:30;;;;;;;0.98;0.73;;;;;;;;;;5044108;28;20033;-73
2023/06/18 04:07:56;;;;;;;1.63;0.98;;;;;;;;;;5043670;28;20029;-74
2023/06/18 04:10:21;;;;;;;2.90;0.90;;;;;;;;;;5043937;28;20379;-75
2023/06/18 04:12:47;;;;;;;2.58;1.08;;;;;;;;;;5043633;28;20029;-72
2023/06/18 04:15:12;;;;;;;1.52;0.93;;;;;;;;;;5042917;28;20037;-73
2023/06/18 04:17:39;;;;;;;1.65;0.90;;;;;;;;;;5043033;28;20306;-72
2023/06/18 04:20:05;;;;;;;1.10;0.80;;;;;;;;;;5042990;28;20252;-73
2023/06/18 04:22:30;;;;;;;1.48;1.00;;;;;;;;;;5043517;28;20029;-73
2023/06/18 04:24:55;;;;;;;1.05;0.73;;;;;;;;;;5043372;28;20096;-76
2023/06/18 04:27:21;;;;;;;3.70;1.20;;;;;;;;;;5042787;28;20033;-74
2023/06/18 04:29:46;;;;;;;2.80;1.52;;;;;;;;;;5043319;28;20211;-75
2023/06/18 04:32:11;;;;;;;2.30;1.40;;;;;;;;;;5042736;28;20041;-73
2023/06/18 04:34:37;;;;;;;1.38;0.95;;;;;;;;;;5043484;28;20029;-73
2023/06/18 04:37:02;;;;;;;3.55;1.55;;;;;;;;;;5043184;28;20022;-75
2023/06/18 04:39:28;;;;;;;2.28;1.27;;;;;;;;;;5043543;28;20468;-72
2023/06/18 04:41:54;;;;;;;1.73;1.10;;;;;;;;;;5043444;28;20032;-73
2023/06/18 04:44:20;;;;;;;1.92;1.17;;;;;;;;;;5043376;28;20029;-72
2023/06/18 04:46:45;;;;;;;1.50;1.10;;;;;;;;;;5042928;28;20040;-72
2023/06/18 04:49:11;;;;;;;1.85;1.05;;;;;;;;;;5043411;28;20033;-73
2023/06/18 04:51:39;;;;;;;2.13;1.20;;;;;;;;;;5042865;28;20053;-74
2023/06/18 04:54:04;;;;;;;2.13;1.17;;;;;;;;;;5043271;28;20079;-73
2023/06/18 04:56:30;;;;;;;1.92;1.00;;;;;;;;;;5043008;28;20108;-73
2023/06/18 04:58:56;;;;;;;1.63;1.13;;;;;;;;;;5042963;28;20025;-73
2023/06/18 05:01:21;;;;;;;2.08;1.25;;;;;;;;;;5042633;28;20039;-72
2023/06/18 05:03:47;;;;;;;1.48;0.90;;;;;;;;;;5042126;28;20309;-72
2023/06/18 05:06:12;;;;;;;1.45;0.90;;;;;;;;;;5042526;28;20059;-72
2023/06/18 05:08:38;;;;;;;3.63;1.20;;;;;;;;;;5042061;28;20028;-72
2023/06/18 05:11:03;;;;;;;1.85;1.10;;;;;;;;;;5042343;28;20021;-73
2023/06/18 05:13:29;;;;;;;1.83;1.13;;;;;;;;;;5042807;28;20040;-73
2023/06/18 05:15:54;;;;;;;2.45;1.25;;;;;;;;;;5042504;28;20223;-74
2023/06/18 05:18:20;;;;;;;1.77;1.05;;;;;;;;;;5042626;28;20063;-73
2023/06/18 05:20:45;;;;;;;2.58;1.15;;;;;;;;;;5042501;28;20037;-72
2023/06/18 05:23:11;;;;;;;1.30;0.90;;;;;;;;;;5042248;28;20045;-73
2023/06/18 05:25:37;;;;;;;1.42;0.90;;;;;;;;;;5042507;28;20069;-72
2023/06/18 05:28:04;;;;;;;2.05;1.10;;;;;;;;;;5042364;28;20060;-73
2023/06/18 05:30:29;;;;;;;1.65;1.10;;;;;;;;;;5042569;28;20030;-73
2023/06/18 05:32:55;;;;;;;2.47;1.55;;;;;;;;;;5041943;28;20036;-74
2023/06/18 05:35:20;;;;;;;1.27;0.85;;;;;;;;;;5041532;28;20048;-72
2023/06/18 05:37:46;;;;;;;1.80;1.08;;;;;;;;;;5041830;28;20029;-73
2023/06/18 05:40:11;;;;;;;3.97;1.38;;;;;;;;;;5042166;28;20017;-73
2023/06/18 05:42:39;;;;;;;6.38;1.35;;;;;;;;;;5041985;28;20079;-76
2023/06/18 05:45:05;;;;;;;2.10;1.23;;;;;;;;;;5041911;28;20025;-73
2023/06/18 05:47:31;;;;;;;2.03;1.23;;;;;;;;;;5041831;28;20029;-73
2023/06/18 05:49:56;;;;;;;2.08;1.10;;;;;;;;;;5042137;28;20039;-74
2023/06/18 05:52:21;;;;;;;1.83;1.25;;;;;;;;;;5041623;28;20124;-74
2023/06/18 05:54:47;;;;;;;1.52;1.02;;;;;;;;;;5042034;28;20059;-74
2023/06/18 05:57:13;;;;;;;1.55;1.00;;;;;;;;;;5041574;28;20025;-76
2023/06/18 05:59:39;;;;;;;1.60;0.95;;;;;;;;;;5041477;28;20448;-73
2023/06/18 06:02:05;;;;;;;1.83;1.08;;;;;;;;;;5041691;28;20029;-74
2023/06/18 06:04:31;;;;;;;1.65;0.85;;;;;;;;;;5041892;28;20044;-77
2023/06/18 06:06:56;;;;;;;2.13;1.17;;;;;;;;;;5041389;28;20045;-75
2023/06/18 06:09:22;;;;;;;1.38;1.08;;;;;;;;;;5040603;28;20040;-71
2023/06/18 06:11:48;;;;;;;1.58;0.98;;;;;;;;;;5041666;28;20067;-72
2023/06/18 06:14:13;;;;;;;1.17;0.95;;;;;;;;;;5040666;28;20320;-71
2023/06/18 06:16:39;;;;;;;2.10;1.00;;;;;;;;;;5040504;28;20049;-73
2023/06/18 06:19:04;;;;;;;2.72;1.42;;;;;;;;;;5041086;28;20044;-75
2023/06/18 06:21:30;;;;;;;1.52;1.10;;;;;;;;;;5041135;28;20037;-75
2023/06/18 06:23:56;;;;;;;1.88;0.85;;;;;;;;;;5041344;28;20052;-74
2023/06/18 06:26:22;;;;;;;2.30;0.82;;;;;;;;;;5041121;28;20226;-70
2023/06/18 06:28:47;;;;;;;5.75;1.17;;;;;;;;;;5056688;28;20128;-73
2023/06/18 06:31:13;;;;;;;2.17;1.27;;;;;;;;;;5040101;28;20217;-74
2023/06/18 06:33:38;;;;;;;1.90;1.05;;;;;;;;;;5040912;28;20217;-73
2023/06/18 06:36:04;;;;;;;2.03;1.15;;;;;;;;;;5041298;28;20033;-76
2023/06/18 06:38:29;;;;;;;1.98;1.00;;;;;;;;;;5040751;28;20029;-73
2023/06/18 06:40:55;;;;;;;1.88;1.08;;;;;;;;;;5040508;28;20025;-73
2023/06/18 06:43:20;;;;;;;1.80;0.95;;;;;;;;;;5040254;28;20029;-74
2023/06/18 06:45:46;;;;;;;1.27;0.82;;;;;;;;;;5040814;28;20033;-73
2023/06/18 06:48:11;;;;;;;1.58;0.85;;;;;;;;;;5039653;28;20033;-71
2023/06/18 06:50:37;;;;;;;2.25;0.90;;;;;;;;;;5041007;28;20109;-74
2023/06/18 06:53:02;;;;;;;2.28;1.42;;;;;;;;;;5040655;28;20061;-71
2023/06/18 06:55:28;;;;;;;2.42;1.00;;;;;;;;;;5041156;28;20030;-70
2023/06/18 06:57:53;;;;;;;2.78;1.17;;;;;;;;;;5040823;28;20017;-73
2023/06/18 07:00:19;;;;;;;1.88;1.20;;;;;;;;;;5040853;28;20098;-73
2023/06/18 07:02:45;;;;;;;1.42;1.13;;;;;;;;;;5040917;28;20029;-74
2023/06/18 07:05:10;;;;;;;1.70;0.95;;;;;;;;;;5040975;28;20071;-73
2023/06/18 07:07:36;;;;;;;2.05;1.38;;;;;;;;;;5040613;28;20305;-73
2023/06/18 07:10:03;;;;;;;1.23;0.90;;;;;;;;;;5040868;28;20075;-73
2023/06/18 07:12:28;;;;;;;1.83;1.17;;;;;;;;;;5040969;28;20025;-75
2023/06/18 07:14:53;;;;;;;1.45;1.00;;;;;;;;;;5040805;28;20091;-73
2023/06/18 07:17:19;;;;;;;3.22;1.90;;;;;;;;;;5040873;28;20459;-72
2023/06/18 07:19:44;;;;;;;1.52;1.08;;;;;;;;;;5040787;28;20021;-73
2023/06/18 07:22:10;;;;;;;1.73;1.17;;;;;;;;;;5044448;28;20037;-73
2023/06/18 07:24:35;;;;;;;1.90;1.45;;;;;;;;;;5043345;28;20028;-73
2023/06/18 07:27:01;;;;;;;3.83;1.42;;;;;;;;;;5043877;28;20045;-73
2023/06/18 07:29:30;;;;;;;2.10;1.45;;;;;;;;;;5043752;28;20022;-75
2023/06/18 07:31:55;;;;;;;2.53;1.58;;;;;;;;;;5042883;28;20033;-75
2023/06/18 07:34:20;;;;;;;3.15;1.95;;;;;;;;;;5044148;28;20037;-70
2023/06/18 07:36:46;;;;;;;2.97;1.80;;;;;;;;;;5043978;28;20363;-69
2023/06/18 07:39:11;;;;;;;2.83;1.80;;;;;;;;;;5051612;28;20020;-69
2023/06/18 07:41:37;;;;;;;3.05;2.00;;;;;;;;;;5058917;28;20021;-71
2023/06/18 07:44:02;;;;;;;2.58;1.73;;;;;;;;;;5044258;28;20093;-70
2023/06/18 07:46:27;;;;;;;3.30;2.00;;;;;;;;;;5054633;28;20056;-69
2023/06/18 07:48:53;;;;;;;3.63;2.33;;;;;;;;;;5064136;28;20262;-70
2023/06/18 07:51:18;;;;;;;2.72;2.05;;;;;;;;;;5064168;28;20028;-71
2023/06/18 07:53:44;;;;;;;2.63;1.80;;;;;;;;;;5064162;28;20112;-73
2023/06/18 07:56:10;;;;;;;2.58;1.88;;;;;;;;;;5044450;28;20029;-70
2023/06/18 07:58:35;;;;;;;2.58;1.80;;;;;;;;;;5044206;28;20097;-74
2023/06/18 08:01:00;;;;;;;2.90;2.08;;;;;;;;;;5044171;28;20097;-71
2023/06/18 08:03:26;;;;;;;3.17;2.22;;;;;;;;;;5043974;28;20093;-69
2023/06/18 08:05:51;;;;;;;3.65;2.28;;;;;;;;;;5043907;28;20097;-69
2023/06/18 08:08:17;;;;;;;5.97;1.85;;;;;;;;;;5043783;28;20041;-72
2023/06/18 08:10:42;;;;;;;3.92;1.90;;;;;;;;;;5043813;28;20213;-69
2023/06/18 08:13:07;;;;;;;3.42;2.30;;;;;;;;;;5062893;28;20062;-69
2023/06/18 08:15:33;;;;;;;4.00;2.03;;;;;;;;;;5063665;28;20024;-75
2023/06/18 08:17:58;;;;;;;2.85;1.73;;;;;;;;;;5063728;28;20046;-74
2023/06/18 08:20:23;;;;;;;2.85;1.95;;;;;;;;;;5063458;28;20246;-70
2023/06/18 08:22:49;;;;;;;3.03;1.80;;;;;;;;;;5068056;28;20385;-70
2023/06/18 08:25:15;;;;;;;2.67;1.98;;;;;;;;;;5078571;28;20025;-70
2023/06/18 08:27:40;;;;;;;2.78;1.88;;;;;;;;;;5074067;28;20387;-69
2023/06/18 08:30:06;;;;;;;3.17;2.15;;;;;;;;;;5079881;28;20056;-72
2023/06/18 08:32:32;;;;;;;2.78;1.60;;;;;;;;;;5080249;28;20071;-69
2023/06/18 08:34:57;;;;;;;2.92;2.03;;;;;;;;;;5083031;28;20079;-75
2023/06/18 08:37:23;;;;;;;2.47;1.73;;;;;;;;;;5082941;28;20074;-69
2023/06/18 08:39:49;;;;;;;2.92;1.90;;;;;;;;;;5076851;28;20028;-69
2023/06/18 08:42:20;;;;;;;2.45;1.50;;;;;;;;;;5070383;28;20020;-68
2023/06/18 08:44:46;;;;;;;2.65;1.90;;;;;;;;;;5083360;28;20060;-68
2023/06/18 08:47:12;;;;;;;3.00;2.10;;;;;;;;;;5078985;28;20324;-68
2023/06/18 08:49:41;;;;;;;3.40;2.00;;;;;;;;;;5083162;28;20039;-68
2023/06/18 08:52:10;;;;;;;5.47;2.30;;;;;;;;;;5082695;28;20044;-68
2023/06/18 08:54:37;;;;;;;2.92;1.95;;;;;;;;;;5078897;28;20347;-68
2023/06/18 08:57:24;;;;;;;2.67;1.90;;;;;;;;;;5078924;28;20339;-67
2023/06/18 08:59:51;;;;;;;2.97;2.08;;;;;;;;;;5082745;28;20250;-69
2023/06/18 09:02:20;;;;;;;4.82;1.98;;;;;;;;;;5082701;28;20043;-69
2023/06/18 09:04:46;;;;;;;3.78;1.48;;;;;;;;;;5081546;28;20118;-71
2023/06/18 09:07:11;;;;;;;3.08;2.03;;;;;;;;;;5068251;28;20041;-70
2023/06/18 09:09:37;;;;;;;4.13;2.00;;;;;;;;;;5080513;28;20028;-69
2023/06/18 09:12:03;;;;;;;2.63;1.70;;;;;;;;;;5069283;28;20039;-70
2023/06/18 09:14:28;;;;;;;3.10;1.95;;;;;;;;;;5062850;28;20037;-71
2023/06/18 09:16:54;;;;;;;4.50;1.77;;;;;;;;;;5073498;28;20024;-70
2023/06/18 09:19:20;;;;;;;3.42;1.73;;;;;;;;;;5081340;28;20036;-69
2023/06/18 09:21:46;;;;;;;4.75;2.10;;;;;;;;;;5081228;28;20036;-69
2023/06/18 09:24:19;;;;;;;2.50;1.73;;;;;;;;;;5068522;28;20020;-69
2023/06/18 09:26:45;;;;;;;2.65;1.92;;;;;;;;;;5065100;28;20212;-70
2023/06/18 09:29:11;;;;;;;2.63;1.70;;;;;;;;;;5060110;28;20033;-70
2023/06/18 09:31:43;;;;;;;4.30;1.73;;;;;;;;;;5061106;28;20332;-69
2023/06/18 09:34:19;;;;;;;3.25;2.10;;;;;;;;;;5061572;28;20044;-70
2023/06/18 09:36:49;;;;;;;3.33;2.00;;;;;;;;;;5061576;28;20029;-69
2023/06/18 09:39:22;;;;;;;2.90;1.75;;;;;;;;;;5061731;28;20017;-79
2023/06/18 09:41:49;;;;;;;2.03;1.42;;;;;;;;;;5062136;28;20036;-70
2023/06/18 09:44:16;;;;;;;2.45;1.63;;;;;;;;;;5061507;28;20036;-70
2023/06/18 09:46:43;;;;;;;3.83;1.90;;;;;;;;;;5061881;28;20029;-72
2023/06/18 09:49:10;;;;;;;7.25;2.05;;;;;;;;;;5060107;28;20096;-76
2023/06/18 09:51:39;;;;;;;2.10;1.52;;;;;;;;;;5059551;28;20087;-70
2023/06/18 09:54:05;;;;;;;2.05;1.52;;;;;;;;;;5060857;28;20032;-71
2023/06/18 09:56:31;;;;;;;2.42;1.83;;;;;;;;;;5060904;28;20021;-69
2023/06/18 09:58:56;;;;;;;7.47;1.73;;;;;;;;;;5060946;28;20036;-69
2023/06/18 10:01:22;;;;;;;2.47;1.55;;;;;;;;;;5061473;28;20047;-73
2023/06/18 10:03:47;;;;;;;2.30;1.60;;;;;;;;;;5053939;28;20017;-70
2023/06/18 10:06:21;;;;;;;3.15;2.10;;;;;;;;;;5050982;28;20021;-70
2023/06/18 10:08:53;;;;;;;5.20;2.08;;;;;;;;;;5047526;28;20029;-70
2023/06/18 10:11:21;;;;;;;5.60;1.92;;;;;;;;;;5047137;28;20039;-71
2023/06/18 10:13:47;;;;;;;2.15;1.65;;;;;;;;;;5048541;28;20111;-70
2023/06/18 10:16:20;;;;;;;2.53;1.65;;;;;;;;;;5048271;28;20108;-70
2023/06/18 10:18:45;;;;;;;2.50;1.85;;;;;;;;;;5048489;28;20443;-70
2023/06/18 10:21:12;;;;;;;3.92;2.03;;;;;;;;;;5048291;28;20033;-70
2023/06/18 10:23:38;;;;;;;2.80;2.03;;;;;;;;;;5049952;28;20029;-70
2023/06/18 10:26:04;;;;;;;2.60;1.80;;;;;;;;;;5048848;28;20017;-70
2023/06/18 10:28:30;;;;;;;2.30;1.67;;;;;;;;;;5049640;28;20033;-72
2023/06/18 10:30:56;;;;;;;2.60;1.70;;;;;;;;;;5053308;28;20104;-72
2023/06/18 10:33:22;;;;;;;3.00;1.90;;;;;;;;;;5051469;28;20064;-71
2023/06/18 10:35:49;;;;;;;2.97;2.10;;;;;;;;;;5054881;28;20025;-73
2023/06/18 10:38:15;;;;;;;6.80;2.05;;;;;;;;;;5049789;28;20024;-72
2023/06/18 10:40:42;;;;;;;3.80;2.05;;;;;;;;;;5049550;28;20155;-71
2023/06/18 10:43:09;;;;;;;2.38;1.85;;;;;;;;;;5049899;28;20025;-70
2023/06/18 10:45:34;;;;;;;3.60;2.20;;;;;;;;;;5049677;28;20507;-70
2023/06/18 10:48:15;;;;;;;3.00;2.10;;;;;;;;;;5049747;28;20037;-74
2023/06/18 10:50:41;;;;;;;2.80;1.98;;;;;;;;;;5055229;28;20036;-71
2023/06/18 10:53:22;;;;;;;3.35;2.13;;;;;;;;;;5049425;28;20053;-71
2023/06/18 10:55:57;;;;;;;2.00;1.60;;;;;;;;;;5049000;28;20697;-71
2023/06/18 10:58:32;;;;;;;2.10;1.63;;;;;;;;;;5049635;28;20487;-72
2023/06/18 11:00:58;;;;;;;3.22;1.85;;;;;;;;;;5051910;28;20021;-72
2023/06/18 11:03:33;;;;;;;3.03;1.92;;;;;;;;;;5049609;28;20040;-73
2023/06/18 11:06:01;;;;;;;2.80;2.00;;;;;;;;;;5049311;28;20116;-70
2023/06/18 11:08:32;;;;;;;3.65;2.08;;;;;;;;;;5053318;28;20029;-74
2023/06/18 11:11:05;;;;;;;2.83;1.92;;;;;;;;;;5050301;28;20025;-72
2023/06/18 11:13:32;;;;;;;2.83;2.08;;;;;;;;;;5050770;28;20040;-71
2023/06/18 11:15:59;;;;;;;3.28;1.80;;;;;;;;;;5053875;28;20455;-72
2023/06/18 11:18:27;;;;;;;2.42;1.92;;;;;;;;;;5050744;28;20392;-73
2023/06/18 11:20:55;;;;;;;2.78;1.88;;;;;;;;;;5051888;28;20029;-72
2023/06/18 11:23:23;;;;;;;2.67;1.70;;;;;;;;;;5049192;28;20202;-76
2023/06/18 11:25:50;;;;;;;2.95;2.03;;;;;;;;;;5047537;28;20097;-73
2023/06/18 11:28:16;;;;;;;3.33;1.90;;;;;;;;;;5038005;28;20310;-72
2023/06/18 11:30:50;;;;;;;2.53;1.70;;;;;;;;;;5056447;28;20043;-73
2023/06/18 11:33:26;;;;;;;3.80;1.70;;;;;;;;;;5060022;28;20037;-71
2023/06/18 11:35:53;;;;;;;5.25;2.10;;;;;;;;;;5053544;28;20043;-70
2023/06/18 11:38:20;;;;;;;2.47;2.03;;;;;;;;;;5049994;28;20033;-73
2023/06/18 11:40:53;;;;;;;3.95;2.05;;;;;;;;;;5060178;28;20017;-71
2023/06/18 11:43:19;;;;;;;3.15;2.10;;;;;;;;;;5060350;28;20074;-71
2023/06/18 11:45:53;;;;;;;4.45;2.25;;;;;;;;;;5054147;28;20032;-71
2023/06/18 11:48:21;;;;;;;2.10;1.67;;;;;;;;;;5039975;28;20217;-71
2023/06/18 11:50:53;;;;;;;2.78;1.80;;;;;;;;;;5040120;28;20064;-71
2023/06/18 11:53:22;;;;;;;4.43;1.95;;;;;;;;;;5045548;28;20040;-71
2023/06/18 11:55:48;;;;;;;7.20;1.80;;;;;;;;;;5060112;28;20031;-71
2023/06/18 11:58:15;;;;;;;4.30;1.92;;;;;;;;;;5059028;28;20028;-72
2023/06/18 12:00:40;;;;;;;2.65;1.80;;;;;;;;;;5060380;28;20041;-71
2023/06/18 12:03:06;;;;;;;2.92;1.90;;;;;;;;;;5059967;28;20024;-77
2023/06/18 12:05:36;;;;;;;2.72;1.67;;;;;;;;;;5060352;28;20036;-73
2023/06/18 12:08:13;;;;;;;2.53;2.08;;;;;;;;;;5061976;28;20043;-72
2023/06/18 12:10:40;;;;;;;2.38;1.65;;;;;;;;;;5063832;28;20021;-73
2023/06/18 12:13:29;;;;;;;4.30;1.83;;;;;;;;;;5063582;28;20044;-72
2023/06/18 12:16:00;;;;;;;2.10;1.52;;;;;;;;;;5062999;28;20140;-72
2023/06/18 12:18:33;;;;;;;2.72;2.03;;;;;;;;;;5062732;28;20028;-72
2023/06/18 12:20:59;;;;;;;2.78;2.00;;;;;;;;;;5063990;28;20021;-77
2023/06/18 12:23:26;;;;;;;2.83;1.63;;;;;;;;;;5045915;28;20092;-71
2023/06/18 12:25:52;;;;;;;3.88;2.08;;;;;;;;;;5043393;28;20075;-73
2023/06/18 12:28:22;;;;;;;2.75;1.85;;;;;;;;;;5041707;28;20049;-74
2023/06/18 12:30:51;;;;;;;2.72;2.10;;;;;;;;;;5041859;28;20040;-72
2023/06/18 12:33:18;;;;;;;2.45;1.80;;;;;;;;;;5041250;28;20021;-73
2023/06/18 12:35:48;;;;;;;3.95;2.30;;;;;;;;;;5042032;28;20022;-72
2023/06/18 12:38:14;;;;;;;;;;;;;;;;;;5042847;28;20033;-71
2023/06/18 12:40:51;;;;;;;2.88;1.73;;;;;;;;;;5039417;28;19919;-71
2023/06/18 12:43:18;;;;;;;2.75;1.67;;;;;;;;;;5038488;28;20026;-71
2023/06/18 12:45:50;;;;;;;4.30;1.98;;;;;;;;;;5042854;28;20109;-77
2023/06/18 12:48:18;;;;;;;2.67;2.08;;;;;;;;;;5042336;28;20318;-72
2023/06/18 12:50:44;;;;;;;2.90;2.10;;;;;;;;;;5043454;28;20029;-72
2023/06/18 12:53:21;;;;;;;2.80;1.85;;;;;;;;;;5042771;28;20052;-72
2023/06/18 12:55:55;;;;;;;2.35;1.67;;;;;;;;;;5045995;28;20036;-71
2023/06/18 12:58:23;;;;;;;3.35;2.05;;;;;;;;;;5066031;28;20012;-71
2023/06/18 13:00:55;;;;;;;2.67;1.85;;;;;;;;;;5063336;28;20030;-75
2023/06/18 13:03:22;;;;;;;3.42;1.90;;;;;;;;;;5074189;28;20028;-75
2023/06/18 13:05:48;;;;;;;2.50;1.90;;;;;;;;;;5080584;28;20491;-71
2023/06/18 13:08:21;;;;;;;2.63;1.95;;;;;;;;;;5080294;28;20424;-75
2023/06/18 13:10:48;;;;;;;2.60;1.90;;;;;;;;;;5072305;28;20040;-72
2023/06/18 13:13:16;;;;;;;1.88;1.50;;;;;;;;;;5081779;28;20036;-72
2023/06/18 13:15:42;;;;;;;2.80;1.63;;;;;;;;;;5069340;28;20028;-72
2023/06/18 13:18:07;;;;;;;3.83;2.05;;;;;;;;;;5082457;28;20031;-73
2023/06/18 13:20:33;;;;;;;2.92;1.55;;;;;;;;;;5060908;28;20333;-73
2023/06/18 13:22:59;;;;;;;3.15;1.67;;;;;;;;;;5066453;28;20025;-73
2023/06/18 13:25:25;;;;;;;3.47;1.70;;;;;;;;;;5076745;28;20312;-73
2023/06/18 13:27:50;;;;;;;2.47;1.40;;;;;;;;;;5082247;28;20032;-72
2023/06/18 13:30:15;;;;;;;2.10;1.50;;;;;;;;;;5075480;28;20033;-75
2023/06/18 13:32:41;;;;;;;2.50;1.60;;;;;;;;;;5044455;28;20521;-82
2023/06/18 13:35:07;;;;;;;3.70;1.95;;;;;;;;;;5039610;28;20089;-74
2023/06/18 13:37:32;;;;;;;3.00;1.98;;;;;;;;;;5050216;28;20029;-72
2023/06/18 13:39:58;;;;;;;3.20;1.95;;;;;;;;;;5039870;28;20025;-73
2023/06/18 13:42:24;;;;;;;4.00;1.70;;;;;;;;;;5040445;28;20222;-71
2023/06/18 13:44:49;;;;;;;2.13;1.70;;;;;;;;;;5040491;28;20044;-72
2023/06/18 13:47:15;;;;;;;2.20;1.50;;;;;;;;;;5039396;28;20041;-71
2023/06/18 13:49:40;;;;;;;4.53;2.15;;;;;;;;;;5039070;28;20031;-71
2023/06/18 13:52:07;;;;;;;2.20;1.70;;;;;;;;;;5039211;28;20313;-71
2023/06/18 13:54:32;;;;;;;2.65;1.70;;;;;;;;;;5039949;28;20033;-71
2023/06/18 13:56:58;;;;;;;2.95;1.77;;;;;;;;;;5039891;28;20173;-71
2023/06/18 13:59:23;;;;;;;3.50;2.05;;;;;;;;;;5040006;28;20067;-72
2023/06/18 14:01:50;;;;;;;2.60;1.80;;;;;;;;;;5040841;28;20038;-72
2023/06/18 14:04:15;;;;;;;3.28;1.75;;;;;;;;;;5041416;28;20317;-72
2023/06/18 14:06:41;;;;;;;4.28;2.10;;;;;;;;;;5041578;28;20033;-72
2023/06/18 14:09:07;;;;;;;2.88;1.85;;;;;;;;;;5041413;28;20036;-72
2023/06/18 14:11:33;;;;;;;2.80;1.98;;;;;;;;;;5041710;28;20024;-72
2023/06/18 14:13:58;;;;;;;2.85;1.75;;;;;;;;;;5041401;28;20032;-73
2023/06/18 14:16:25;;;;;;;2.72;1.90;;;;;;;;;;5041584;28;20096;-72
2023/06/18 14:18:50;;;;;;;3.28;1.65;;;;;;;;;;5040208;28;20026;-73
2023/06/18 14:21:16;;;;;;;3.15;1.95;;;;;;;;;;5041518;28;20075;-72
2023/06/18 14:23:43;;;;;;;2.63;1.73;;;;;;;;;;5041419;28;20022;-72
2023/06/18 14:26:08;;;;;;;2.53;1.85;;;;;;;;;;5041125;28;20084;-73
2023/06/18 14:28:34;;;;;;;5.72;2.00;;;;;;;;;;5041285;28;20021;-72
2023/06/18 14:31:00;;;;;;;4.15;2.33;;;;;;;;;;5040813;28;20029;-72
2023/06/18 14:33:26;;;;;;;9.48;2.25;;;;;;;;;;5041233;28;20222;-71
2023/06/18 14:35:52;;;;;;;3.47;2.40;;;;;;;;;;5041101;28;20022;-72
2023/06/18 14:38:17;;;;;;;3.50;2.10;;;;;;;;;;5041108;28;20025;-72
2023/06/18 14:40:43;;;;;;;2.92;2.08;;;;;;;;;;5041032;28;20021;-72
2023/06/18 14:43:08;;;;;;;3.03;1.95;;;;;;;;;;5039782;28;20455;-72